Time;durP1;ratioP1;P1;durP2;ratioP2;P2;SDS_P1;SDS_P2;PMS_P1;PMS_P2;Temp;Humidity;BMP_temperature;BMP_pressure;BME280_temperature;BME280_humidity;BME280_pressure;Samples;Min_cycle;Max_cycle;Signal;HPM_P1;HPM_P2
2022/01/07 00:02:15;;;;;;;3.60;2.43;;;;;;;5.40;67.63;96831.38;5095899;28;20439;-38
2022/01/07 00:04:43;;;;;;;5.27;4.00;;;;;;;5.37;67.09;96831.78;5095729;28;20445;-37
2022/01/07 00:07:11;;;;;;;2.23;2.03;;;;;;;5.38;67.98;96836.03;5096003;28;20794;-37
2022/01/07 00:09:39;;;;;;;5.20;3.10;;;;;;;5.38;67.42;96844.75;5095713;28;20513;-38
2022/01/07 00:12:06;;;;;;;2.77;1.80;;;;;;;5.37;67.68;96845.75;5094792;28;20443;-37
2022/01/07 00:14:34;;;;;;;5.00;2.73;;;;;;;5.38;67.25;96851.81;5096071;28;20447;-38
2022/01/07 00:17:01;;;;;;;3.30;2.13;;;;;;;5.42;67.95;96851.25;5095508;28;20442;-37
2022/01/07 00:19:28;;;;;;;4.93;2.70;;;;;;;5.41;66.92;96840.91;5095411;28;20982;-37
2022/01/07 00:21:56;;;;;;;4.07;2.50;;;;;;;5.38;66.82;96849.19;5095520;28;20446;-37
2022/01/07 00:24:24;;;;;;;5.53;2.23;;;;;;;5.35;66.96;96842.50;5095386;28;20922;-37
2022/01/07 00:26:52;;;;;;;1.80;1.67;;;;;;;5.37;67.59;96844.97;5095685;28;20446;-37
2022/01/07 00:29:19;;;;;;;3.77;1.80;;;;;;;5.33;67.25;96849.81;5095702;28;20812;-38
2022/01/07 00:31:46;;;;;;;5.03;2.00;;;;;;;5.31;66.79;96847.41;5095518;28;20439;-37
2022/01/07 00:34:13;;;;;;;2.70;2.37;;;;;;;5.30;67.59;96856.28;5095449;28;20447;-38
2022/01/07 00:36:41;;;;;;;2.60;2.40;;;;;;;5.32;67.63;96854.25;5095133;28;20439;-38
2022/01/07 00:39:08;;;;;;;1.97;1.77;;;;;;;5.38;67.49;96857.94;5095822;28;20478;-37
2022/01/07 00:41:36;;;;;;;2.73;2.00;;;;;;;5.36;68.08;96853.88;5095062;28;20949;-37
2022/01/07 00:44:04;;;;;;;2.97;2.30;;;;;;;5.33;67.13;96855.06;5095096;28;20443;-37
2022/01/07 00:46:31;;;;;;;4.13;2.27;;;;;;;5.33;67.50;96863.81;5095053;28;20439;-35
2022/01/07 00:48:59;;;;;;;1.87;1.77;;;;;;;5.32;67.82;96859.53;5094984;28;20442;-38
2022/01/07 00:51:26;;;;;;;3.67;2.80;;;;;;;5.34;68.03;96859.34;5094856;28;20443;-37
2022/01/07 00:53:53;;;;;;;3.77;2.30;;;;;;;5.21;67.52;96873.28;5094805;28;20798;-37
2022/01/07 00:56:21;;;;;;;2.90;2.20;;;;;;;5.21;68.21;96873.28;5094944;28;20439;-37
2022/01/07 00:58:49;;;;;;;2.20;1.50;;;;;;;5.24;68.19;96867.63;5094624;28;20470;-38
2022/01/07 01:01:17;;;;;;;4.87;2.83;;;;;;;5.15;68.48;96878.53;5094671;28;20490;-38
2022/01/07 01:03:45;;;;;;;2.47;2.27;;;;;;;5.17;68.55;96872.06;5094623;28;20447;-37
2022/01/07 01:06:12;;;;;;;3.53;2.30;;;;;;;5.24;68.51;96870.25;5094909;28;20522;-37
2022/01/07 01:08:39;;;;;;;4.27;2.37;;;;;;;5.14;68.67;96872.44;5094623;28;20447;-37
2022/01/07 01:11:07;;;;;;;2.97;2.50;;;;;;;5.19;68.58;96875.31;5094404;28;20443;-38
2022/01/07 01:13:34;;;;;;;2.47;2.30;;;;;;;5.15;68.65;96879.34;5094805;28;20450;-37
2022/01/07 01:16:03;;;;;;;5.67;2.20;;;;;;;5.17;68.42;96872.06;5094390;28;20446;-38
2022/01/07 01:18:30;;;;;;;3.00;2.17;;;;;;;5.17;68.50;96872.06;5094390;28;20941;-37
2022/01/07 01:20:57;;;;;;;3.83;1.77;;;;;;;5.18;68.81;96884.19;5094238;28;20994;-37
2022/01/07 01:23:24;;;;;;;2.87;1.83;;;;;;;5.22;69.28;96890.69;5094274;28;20529;-37
2022/01/07 01:25:52;;;;;;;2.70;1.63;;;;;;;5.27;68.82;96883.03;5094279;28;20435;-38
2022/01/07 01:28:19;;;;;;;6.37;2.83;;;;;;;5.23;68.49;96876.53;5094177;28;20500;-37
2022/01/07 01:30:47;;;;;;;2.30;2.10;;;;;;;5.22;68.41;96885.44;5094129;28;20446;-37
2022/01/07 01:33:17;;;;;;;2.30;2.10;;;;;;;5.21;68.47;96889.09;5094113;28;20439;-38
2022/01/07 01:35:44;;;;;;;2.10;2.00;;;;;;;5.24;68.99;96885.25;5093996;28;20447;-38
2022/01/07 01:38:11;;;;;;;4.90;3.00;;;;;;;5.13;68.08;96882.19;5094339;28;20439;-38
2022/01/07 01:40:38;;;;;;;2.93;2.33;;;;;;;5.17;68.23;96898.38;5094202;28;20514;-38
2022/01/07 01:43:05;;;;;;;3.00;2.00;;;;;;;5.16;68.52;96901.22;5093955;28;20439;-38
2022/01/07 01:45:33;;;;;;;2.83;2.00;;;;;;;5.18;68.61;96893.94;5093892;28;20452;-37
2022/01/07 01:48:00;;;;;;;2.43;1.80;;;;;;;5.20;68.68;96892.72;5093954;28;20443;-38
2022/01/07 01:50:28;;;;;;;4.17;2.20;;;;;;;5.17;68.71;96898.38;5094144;28;20450;-39
2022/01/07 01:52:57;;;;;;;2.43;2.03;;;;;;;5.15;68.69;96892.50;5094126;28;20438;-38
2022/01/07 01:55:27;;;;;;;2.43;2.23;;;;;;;5.16;69.31;96886.22;5094067;28;20832;-37
2022/01/07 01:57:55;;;;;;;5.03;3.47;;;;;;;5.15;68.83;96889.88;5093779;28;20478;-37
2022/01/07 02:00:24;;;;;;;4.63;1.97;;;;;;;5.16;68.29;96893.31;5093643;28;20482;-37
2022/01/07 02:02:53;;;;;;;2.57;2.43;;;;;;;4.97;69.17;96885.19;5093964;28;20434;-38
2022/01/07 02:05:20;;;;;;;4.30;2.63;;;;;;;4.98;69.53;96888.63;5093618;28;20435;-38
2022/01/07 02:07:49;;;;;;;3.13;2.33;;;;;;;4.99;69.80;96884.97;5093619;28;20449;-38
2022/01/07 02:10:18;;;;;;;4.90;2.03;;;;;;;5.02;69.95;96889.84;5093525;28;20439;-38
2022/01/07 02:12:45;;;;;;;3.33;2.50;;;;;;;5.01;69.91;96894.31;5094138;28;20446;-37
2022/01/07 02:15:15;;;;;;;3.93;2.43;;;;;;;5.00;69.98;96902.41;5093768;28;20465;-38
2022/01/07 02:17:45;;;;;;;3.97;3.00;;;;;;;5.02;69.87;96900.38;5093470;28;20439;-38
2022/01/07 02:20:17;;;;;;;2.80;2.50;;;;;;;5.03;70.30;96902.00;5093390;28;20996;-38
2022/01/07 02:22:44;;;;;;;5.20;3.03;;;;;;;4.71;70.60;96846.44;5093831;28;20435;-38
2022/01/07 02:25:12;;;;;;;3.70;2.57;;;;;;;5.10;70.22;96913.38;5093379;28;20915;-38
2022/01/07 02:27:42;;;;;;;2.60;2.40;;;;;;;4.97;70.29;96892.25;5093461;28;20442;-38
2022/01/07 02:30:12;;;;;;;5.33;2.83;;;;;;;5.02;70.27;96897.75;5093460;28;20447;-38
2022/01/07 02:32:40;;;;;;;5.13;3.00;;;;;;;5.11;69.66;96913.16;5093700;28;20450;-38
2022/01/07 02:35:09;;;;;;;14.13;3.40;;;;;;;5.15;69.14;96907.50;5096489;28;20441;-37
2022/01/07 02:37:38;;;;;;;2.47;2.27;;;;;;;5.15;69.46;96918.84;5097836;28;20443;-38
2022/01/07 02:40:07;;;;;;;3.80;2.43;;;;;;;5.04;69.72;96896.53;5097435;28;20474;-38
2022/01/07 02:42:35;;;;;;;3.00;2.30;;;;;;;5.18;69.04;96909.72;5097707;28;20451;-38
2022/01/07 02:45:05;;;;;;;3.83;2.90;;;;;;;5.22;69.41;96916.22;5097663;28;20439;-37
2022/01/07 02:47:40;;;;;;;4.80;2.53;;;;;;;5.21;69.71;96920.69;5097445;28;20855;-38
2022/01/07 02:50:08;;;;;;;13.00;6.30;;;;;;;5.20;68.86;96918.22;5097593;28;20538;-38
2022/01/07 02:52:35;;;;;;;12.00;7.30;;;;;;;5.16;69.29;96927.53;5097182;28;20438;-38
2022/01/07 02:55:04;;;;;;;4.50;3.67;;;;;;;5.09;69.80;96919.63;5097195;28;20450;-38
2022/01/07 02:57:31;;;;;;;9.63;5.93;;;;;;;5.07;69.79;96932.16;5097246;28;20439;-37
2022/01/07 02:59:59;;;;;;;7.37;4.60;;;;;;;4.98;70.10;96920.19;5097276;28;20957;-38
2022/01/07 03:02:26;;;;;;;5.17;4.07;;;;;;;4.97;70.49;96923.81;5097260;28;20438;-38
2022/01/07 03:04:53;;;;;;;4.30;3.53;;;;;;;5.01;70.96;96930.31;5097175;28;20443;-38
2022/01/07 03:07:20;;;;;;;4.60;3.67;;;;;;;5.01;70.47;96927.69;5096943;28;20438;-37
2022/01/07 03:09:48;;;;;;;5.17;3.80;;;;;;;5.03;70.84;96930.94;5097121;28;20445;-37
2022/01/07 03:12:16;;;;;;;4.40;3.80;;;;;;;5.00;69.83;96933.97;5096903;28;20447;-38
2022/01/07 03:14:44;;;;;;;7.07;4.10;;;;;;;5.00;69.47;96931.34;5097073;28;20498;-38
2022/01/07 03:17:11;;;;;;;5.00;3.83;;;;;;;5.00;69.90;96936.59;5096998;28;20443;-38
2022/01/07 03:19:41;;;;;;;5.73;3.63;;;;;;;4.95;69.63;96937.19;5097013;28;20915;-37
2022/01/07 03:22:08;;;;;;;4.40;4.00;;;;;;;4.91;69.94;96936.78;5096621;28;20445;-38
2022/01/07 03:24:37;;;;;;;5.77;3.63;;;;;;;4.78;70.08;96915.69;5096667;28;20450;-38
2022/01/07 03:27:06;;;;;;;7.57;4.17;;;;;;;4.73;70.07;96915.44;5096479;28;20804;-37
2022/01/07 03:29:34;;;;;;;6.70;4.90;;;;;;;4.84;70.20;96935.94;5096423;28;20443;-37
2022/01/07 03:32:02;;;;;;;5.57;3.80;;;;;;;4.84;70.45;96943.84;5096825;28;20466;-38
2022/01/07 03:34:29;;;;;;;5.20;4.17;;;;;;;4.81;70.51;96941.59;5096368;28;20799;-37
2022/01/07 03:36:56;;;;;;;4.17;3.73;;;;;;;4.78;70.91;96947.25;5096394;28;20441;-38
2022/01/07 03:39:23;;;;;;;4.90;4.07;;;;;;;4.72;70.57;96937.50;5096594;28;20929;-37
2022/01/07 03:41:51;;;;;;;7.50;4.30;;;;;;;4.66;70.77;96938.28;5096699;28;20927;-38
2022/01/07 03:44:18;;;;;;;7.73;4.10;;;;;;;4.57;71.08;96932.38;5096222;28;20952;-37
2022/01/07 03:46:47;;;;;;;4.73;4.03;;;;;;;4.58;71.36;96935.81;5095179;28;20447;-37
2022/01/07 03:49:14;;;;;;;6.50;4.50;;;;;;;4.59;71.31;96945.34;5096393;28;20443;-37
2022/01/07 03:51:42;;;;;;;6.63;4.57;;;;;;;4.59;71.45;96948.75;5096012;28;20453;-37
2022/01/07 03:54:09;;;;;;;7.70;4.60;;;;;;;4.61;71.13;96945.94;5096111;28;20492;-38
2022/01/07 03:56:36;;;;;;;17.57;5.33;;;;;;;4.61;71.19;96956.47;5095978;28;20439;-38
2022/01/07 03:59:05;;;;;;;7.90;5.23;;;;;;;4.63;71.16;96955.25;5095796;28;20466;-37
2022/01/07 04:01:33;;;;;;;7.97;5.63;;;;;;;4.66;71.27;96964.56;5095806;28;20487;-37
2022/01/07 04:04:01;;;;;;;12.07;4.90;;;;;;;4.67;71.38;96963.59;5095821;28;20439;-37
2022/01/07 04:06:29;;;;;;;8.83;5.00;;;;;;;4.71;71.16;96967.44;5095735;28;20443;-37
2022/01/07 04:08:56;;;;;;;13.30;5.70;;;;;;;4.74;71.19;96969.69;5095689;28;20938;-38
2022/01/07 04:11:23;;;;;;;20.87;7.50;;;;;;;4.76;71.29;96975.56;5095653;28;20518;-37
2022/01/07 04:13:51;;;;;;;10.70;6.20;;;;;;;4.80;71.27;96971.53;5096077;28;20831;-37
2022/01/07 04:16:18;;;;;;;9.50;6.80;;;;;;;4.80;71.26;96979.44;5095891;28;20482;-38
2022/01/07 04:18:45;;;;;;;24.20;12.13;;;;;;;4.79;70.86;96983.06;5095492;28;20443;-39
2022/01/07 04:21:14;;;;;;;53.30;24.23;;;;;;;4.80;70.06;96989.16;5095698;28;20487;-38
2022/01/07 04:23:41;;;;;;;10.70;6.00;;;;;;;4.76;70.41;96996.59;5095347;28;20859;-38
2022/01/07 04:26:08;;;;;;;7.77;5.30;;;;;;;4.77;70.63;96998.22;5095580;28;20775;-38
2022/01/07 04:28:35;;;;;;;20.97;10.70;;;;;;;4.79;70.28;96992.78;5095678;28;20450;-37
2022/01/07 04:31:02;;;;;;;18.60;9.93;;;;;;;4.77;70.75;96990.31;5095230;28;20453;-38
2022/01/07 04:33:32;;;;;;;21.93;9.10;;;;;;;4.79;71.07;96992.78;5095581;28;20458;-37
2022/01/07 04:36:00;;;;;;;47.07;21.03;;;;;;;4.78;70.99;96981.44;5095479;28;20793;-37
2022/01/07 04:38:29;;;;;;;61.17;22.17;;;;;;;4.70;69.62;96978.97;5096032;28;20525;-38
2022/01/07 04:40:56;;;;;;;54.07;15.97;;;;;;;4.65;70.13;96981.38;5095043;28;20985;-37
2022/01/07 04:43:23;;;;;;;59.53;17.77;;;;;;;4.61;69.80;96996.72;5095091;28;20910;-38
2022/01/07 04:45:51;;;;;;;48.33;17.43;;;;;;;4.60;70.26;96996.91;5095464;28;20466;-38
2022/01/07 04:48:19;;;;;;;78.30;24.67;;;;;;;4.53;69.95;96988.19;5094939;28;20783;-37
2022/01/07 04:50:46;;;;;;;51.00;17.10;;;;;;;4.53;70.09;96990.81;5094865;28;20443;-38
2022/01/07 04:53:13;;;;;;;63.73;19.53;;;;;;;4.44;69.46;96998.84;5094846;28;20454;-37
2022/01/07 04:55:44;;;;;;;77.30;25.67;;;;;;;4.41;70.40;96988.72;5095031;28;20523;-38
2022/01/07 04:58:13;;;;;;;95.47;27.37;;;;;;;4.33;70.09;96990.69;5094582;28;20506;-37
2022/01/07 05:00:42;;;;;;;54.90;18.80;;;;;;;4.43;69.83;96997.22;5094638;28;20962;-37
2022/01/07 05:03:10;;;;;;;24.87;11.07;;;;;;;4.44;69.97;97004.09;5094701;28;20954;-37
2022/01/07 05:05:37;;;;;;;14.47;7.30;;;;;;;4.42;69.82;97008.72;5094692;28;20931;-38
2022/01/07 05:08:06;;;;;;;8.93;5.30;;;;;;;4.43;70.15;97009.53;5094752;28;20454;-37
2022/01/07 05:10:33;;;;;;;7.73;4.37;;;;;;;4.30;69.61;96986.59;5094560;28;20447;-38
2022/01/07 05:13:02;;;;;;;4.57;3.30;;;;;;;4.39;69.71;96995.97;5094810;28;20443;-38
2022/01/07 05:15:30;;;;;;;7.77;5.00;;;;;;;4.38;69.74;96998.78;5094388;28;20953;-37
2022/01/07 05:17:57;;;;;;;10.37;7.00;;;;;;;4.35;69.51;97000.00;5094633;28;20448;-38
2022/01/07 05:20:24;;;;;;;32.47;13.60;;;;;;;4.33;69.66;96995.94;5094204;28;20441;-37
2022/01/07 05:22:51;;;;;;;39.93;19.37;;;;;;;4.34;69.51;96998.34;5094629;28;20466;-37
2022/01/07 05:25:19;;;;;;;19.27;11.43;;;;;;;4.35;69.25;96994.75;5094524;28;20511;-38
2022/01/07 05:27:47;;;;;;;21.53;13.70;;;;;;;4.26;69.59;97001.16;5094280;28;20502;-37
2022/01/07 05:30:16;;;;;;;19.27;12.33;;;;;;;4.23;69.67;97001.50;5094188;28;20443;-38
2022/01/07 05:32:43;;;;;;;20.30;11.43;;;;;;;4.25;69.59;97010.03;5101193;28;21002;-38
2022/01/07 05:35:11;;;;;;;17.17;9.77;;;;;;;4.22;69.84;97002.53;5114611;28;20445;-38
2022/01/07 05:37:38;;;;;;;39.50;21.30;;;;;;;4.20;69.31;97001.91;5114695;28;20454;-37
2022/01/07 05:40:07;;;;;;;39.93;19.53;;;;;;;4.21;69.63;97009.59;5114636;28;20442;-38
2022/01/07 05:42:34;;;;;;;27.77;13.90;;;;;;;4.25;69.46;96996.88;5114372;28;20485;-38
2022/01/07 05:45:01;;;;;;;30.83;13.50;;;;;;;4.24;69.37;97008.41;5114628;28;20460;-38
2022/01/07 05:47:30;;;;;;;20.40;10.10;;;;;;;4.22;68.88;97008.59;5114660;28;20438;-38
2022/01/07 05:49:57;;;;;;;21.63;11.03;;;;;;;4.26;68.95;97022.97;5114394;28;20807;-39
2022/01/07 05:52:24;;;;;;;51.13;24.73;;;;;;;4.30;71.35;97018.13;5114078;28;20453;-37
2022/01/07 05:54:52;;;;;;;10.53;8.47;;;;;;;4.37;69.86;97013.75;5114326;28;20438;-37
2022/01/07 05:57:19;;;;;;;6.50;4.97;;;;;;;4.37;69.18;97020.84;5114147;28;20896;-37
2022/01/07 05:59:46;;;;;;;9.80;6.70;;;;;;;4.37;67.86;97019.03;5113962;28;20999;-38
2022/01/07 06:02:13;;;;;;;10.80;8.70;;;;;;;4.38;67.82;97023.25;5114318;28;20490;-37
2022/01/07 06:04:42;;;;;;;14.90;8.00;;;;;;;4.41;67.67;97020.28;5113928;28;20986;-37
2022/01/07 06:07:09;;;;;;;21.30;12.40;;;;;;;4.40;68.34;97023.88;5113854;28;20434;-38
2022/01/07 06:09:36;;;;;;;14.37;8.30;;;;;;;4.44;68.62;97029.59;5113283;28;20799;-38
2022/01/07 06:12:06;;;;;;;9.63;6.63;;;;;;;4.44;68.48;97033.00;5106130;28;20446;-38
2022/01/07 06:14:33;;;;;;;7.63;5.77;;;;;;;4.32;68.22;97013.50;5092881;28;20443;-38
2022/01/07 06:17:00;;;;;;;11.90;7.33;;;;;;;4.48;68.36;97047.41;5093330;28;20807;-37
2022/01/07 06:19:27;;;;;;;16.87;7.70;;;;;;;4.47;68.20;97043.16;5093703;28;20443;-38
2022/01/07 06:21:56;;;;;;;32.50;13.23;;;;;;;4.51;68.53;97041.75;5093192;28;20845;-38
2022/01/07 06:24:23;;;;;;;18.83;9.93;;;;;;;4.58;68.66;97041.00;5093393;28;20439;-38
2022/01/07 06:26:50;;;;;;;16.30;9.47;;;;;;;4.60;68.65;97036.34;5093641;28;20443;-38
2022/01/07 06:29:17;;;;;;;9.90;6.50;;;;;;;4.61;68.32;97045.88;5093486;28;20802;-38
2022/01/07 06:31:45;;;;;;;14.60;6.53;;;;;;;4.62;68.40;97055.38;5093143;28;20439;-37
2022/01/07 06:34:12;;;;;;;20.30;9.20;;;;;;;4.66;68.22;97061.88;5093527;28;20467;-38
2022/01/07 06:36:39;;;;;;;17.93;9.10;;;;;;;4.68;67.95;97062.50;5093244;28;20484;-38
2022/01/07 06:39:08;;;;;;;10.03;7.37;;;;;;;4.70;68.41;97065.75;5093477;28;20450;-38
2022/01/07 06:41:35;;;;;;;26.87;11.00;;;;;;;4.72;68.05;97076.91;5093352;28;20479;-38
2022/01/07 06:44:02;;;;;;;16.53;8.67;;;;;;;4.73;68.29;97070.63;5093081;28;20930;-38
2022/01/07 06:46:29;;;;;;;13.73;6.20;;;;;;;4.73;68.17;97075.88;5093298;28;20521;-38
2022/01/07 06:48:56;;;;;;;17.33;9.90;;;;;;;4.71;68.08;97078.72;5093130;28;20447;-39
2022/01/07 06:51:24;;;;;;;14.13;8.73;;;;;;;4.73;68.17;97081.16;5093356;28;20492;-38
2022/01/07 06:53:51;;;;;;;15.60;6.50;;;;;;;4.77;68.06;97077.13;5093398;28;20453;-38
2022/01/07 06:56:19;;;;;;;10.50;6.23;;;;;;;4.80;68.56;97075.97;5093334;28;20443;-38
2022/01/07 06:58:47;;;;;;;13.00;7.23;;;;;;;4.84;68.68;97083.28;5092898;28;20475;-38
2022/01/07 07:01:14;;;;;;;8.43;6.30;;;;;;;4.84;68.18;97083.28;5093152;28;20926;-38
2022/01/07 07:03:41;;;;;;;13.43;6.13;;;;;;;4.87;68.24;97093.41;5093070;28;20445;-38
2022/01/07 07:06:08;;;;;;;10.33;4.87;;;;;;;4.90;67.81;97086.94;5092914;28;20439;-38
2022/01/07 07:08:36;;;;;;;9.13;5.27;;;;;;;4.86;67.67;97078.63;5093292;28;20813;-38
2022/01/07 07:11:03;;;;;;;14.83;6.10;;;;;;;4.97;67.53;97089.59;5092921;28;20451;-38
2022/01/07 07:13:32;;;;;;;7.00;4.40;;;;;;;4.96;67.42;97074.84;5093002;28;20965;-37
2022/01/07 07:15:59;;;;;;;16.20;7.53;;;;;;;5.09;67.68;97096.75;5092711;28;20447;-38
2022/01/07 07:18:26;;;;;;;12.50;5.70;;;;;;;5.11;66.90;97088.69;5092815;28;20441;-37
2022/01/07 07:20:53;;;;;;;7.93;5.47;;;;;;;5.10;66.72;97087.06;5094890;28;20441;-38
2022/01/07 07:23:21;;;;;;;11.67;6.03;;;;;;;5.13;67.18;97092.75;5096575;28;20997;-39
2022/01/07 07:25:49;;;;;;;52.93;13.90;;;;;;;5.18;67.17;97089.53;5095943;28;20443;-39
2022/01/07 07:31:00;;;;;;;7.70;5.23;;;;;;;5.20;66.67;97092.78;5096809;28;20810;-38
2022/01/07 07:33:54;;;;;;;10.50;5.73;;;;;;;5.21;66.75;97097.03;5096395;28;20911;-38
2022/01/07 07:36:31;;;;;;;10.40;6.20;;;;;;;5.25;66.61;97093.03;5096829;28;20522;-38
2022/01/07 07:39:01;;;;;;;7.90;5.33;;;;;;;5.32;66.07;97100.94;5096597;28;20480;-38
2022/01/07 07:41:28;;;;;;;14.70;7.13;;;;;;;5.36;67.68;97091.66;5096261;28;20475;-37
2022/01/07 07:43:57;;;;;;;24.50;12.10;;;;;;;5.39;67.01;97079.91;5097393;28;20434;-38
2022/01/07 07:46:28;;;;;;;21.53;11.57;;;;;;;5.45;66.90;97084.41;5096478;28;20446;-38
2022/01/07 07:48:55;;;;;;;6.07;4.80;;;;;;;5.48;65.70;97086.63;5096572;28;20438;-39
2022/01/07 07:51:22;;;;;;;6.27;4.83;;;;;;;5.45;65.47;97084.41;5096443;28;20781;-38
2022/01/07 07:53:50;;;;;;;11.10;5.00;;;;;;;5.46;66.17;97086.84;5097243;28;20469;-38
2022/01/07 07:56:18;;;;;;;14.90;8.37;;;;;;;5.51;66.41;97083.63;5096118;28;20439;-38
2022/01/07 07:58:46;;;;;;;12.80;6.70;;;;;;;5.53;65.73;97086.88;5096069;28;20765;-37
2022/01/07 08:01:13;;;;;;;11.70;6.70;;;;;;;5.57;66.23;97089.91;5095951;28;20446;-39
2022/01/07 08:03:42;;;;;;;13.43;8.70;;;;;;;5.57;65.86;97088.09;5116159;28;20434;-37
2022/01/07 08:06:09;;;;;;;11.03;6.40;;;;;;;5.56;65.69;97097.00;5116329;28;20442;-38
2022/01/07 08:08:37;;;;;;;9.50;6.70;;;;;;;5.65;65.67;97101.06;5116414;28;20955;-38
2022/01/07 08:11:08;;;;;;;5.20;3.77;;;;;;;5.65;65.46;97103.72;5116304;28;20519;-37
2022/01/07 08:16:16;;;;;;;18.10;5.47;;;;;;;5.74;64.80;97099.91;5115784;28;20422;-37
2022/01/07 08:18:44;;;;;;;8.57;6.60;;;;;;;5.73;64.35;97100.91;5116241;28;20449;-38
2022/01/07 08:21:12;;;;;;;10.90;4.70;;;;;;;5.63;64.79;97087.28;5099870;28;20928;-38
2022/01/07 08:23:41;;;;;;;5.90;4.43;;;;;;;5.80;64.89;97110.66;5095541;28;20447;-38
2022/01/07 08:26:11;;;;;;;16.57;8.20;;;;;;;5.81;64.98;97109.63;5095430;28;20443;-38
2022/01/07 08:28:46;;;;;;;23.57;10.23;;;;;;;5.85;64.50;97110.88;5095903;28;20436;-38
2022/01/07 08:34:53;;;;;;;9.23;7.20;;;;;;;5.93;64.58;97111.50;5094935;28;20434;-38
2022/01/07 08:37:03;;;;;;;5.87;3.80;;;;;;;5.95;63.13;97100.78;5095420;28;20407;-38
2022/01/07 08:39:30;;;;;;;18.73;8.63;;;;;;;5.95;63.61;97093.69;5095202;28;20437;-38
2022/01/07 08:41:57;;;;;;;20.40;8.67;;;;;;;6.04;64.05;97085.59;5095028;28;20487;-38
2022/01/07 08:44:26;;;;;;;29.50;11.53;;;;;;;6.11;63.47;97084.63;5095021;28;20435;-38
2022/01/07 08:46:53;;;;;;;32.93;11.73;;;;;;;6.21;63.67;97084.22;5094945;28;20449;-38
2022/01/07 08:49:22;;;;;;;11.97;6.93;;;;;;;6.29;63.24;97083.22;5094946;28;20443;-38
2022/01/07 08:51:49;;;;;;;7.10;5.57;;;;;;;6.38;63.38;97068.81;5095227;28;20443;-38
2022/01/07 08:54:17;;;;;;;17.10;7.27;;;;;;;6.47;62.89;97072.06;5095150;28;20834;-38
2022/01/07 08:56:44;;;;;;;13.80;6.23;;;;;;;6.57;62.06;97069.81;5094792;28;20443;-38
2022/01/07 08:59:11;;;;;;;23.10;11.13;;;;;;;6.56;60.77;97050.56;5094628;28;20478;-38
2022/01/07 09:01:38;;;;;;;29.80;15.30;;;;;;;6.71;61.16;97062.69;5094964;28;20825;-38
2022/01/07 09:04:05;;;;;;;53.87;23.83;;;;;;;6.85;60.76;97056.38;5094635;28;20455;-37
2022/01/07 09:06:34;;;;;;;27.13;12.97;;;;;;;6.90;60.07;97064.50;5095002;28;20439;-37
2022/01/07 09:09:02;;;;;;;30.93;15.50;;;;;;;6.96;59.84;97058.38;5094508;28;20439;-37
2022/01/07 09:11:29;;;;;;;15.40;8.20;;;;;;;6.93;58.70;97061.47;5094827;28;20533;-37
2022/01/07 09:13:58;;;;;;;19.60;11.80;;;;;;;6.99;59.44;97065.13;5094461;28;20450;-38
2022/01/07 09:16:27;;;;;;;29.73;12.57;;;;;;;7.06;58.36;97060.63;5094816;28;20443;-38
2022/01/07 09:18:54;;;;;;;6.57;4.77;;;;;;;7.17;58.52;97064.44;5094456;28;20492;-38
2022/01/07 09:21:21;;;;;;;6.60;3.13;;;;;;;7.22;57.56;97063.81;5094561;28;20450;-38
2022/01/07 09:23:50;;;;;;;10.47;4.77;;;;;;;7.20;58.26;97066.66;5094604;28;20490;-38
2022/01/07 09:26:17;;;;;;;9.40;6.20;;;;;;;7.19;57.10;97059.78;5094247;28;20949;-38
2022/01/07 09:28:44;;;;;;;11.63;5.50;;;;;;;7.16;56.63;97049.59;5094557;28;20451;-37
2022/01/07 09:31:13;;;;;;;8.27;5.70;;;;;;;7.13;56.44;97050.03;5094425;28;20447;-37
2022/01/07 09:33:41;;;;;;;30.93;15.40;;;;;;;7.20;57.08;97042.91;5094121;28;20953;-37
2022/01/07 09:36:08;;;;;;;15.97;7.47;;;;;;;7.26;57.22;97039.41;5094430;28;20783;-38
2022/01/07 09:38:35;;;;;;;8.73;5.47;;;;;;;7.07;57.84;96990.94;5094023;28;20455;-38
2022/01/07 09:41:05;;;;;;;10.93;4.70;;;;;;;7.36;56.19;97042.44;5094302;28;20923;-39
2022/01/07 09:43:32;;;;;;;6.40;3.50;;;;;;;7.41;55.39;97041.81;5092958;28;20489;-38
2022/01/07 09:46:00;;;;;;;13.63;4.83;;;;;;;7.39;55.16;97042.00;5094234;28;20483;-38
2022/01/07 09:48:27;;;;;;;10.50;4.63;;;;;;;7.39;53.92;97038.56;5093934;28;20919;-38
2022/01/07 09:50:54;;;;;;;12.27;5.90;;;;;;;7.34;55.55;97041.84;5093934;28;20961;-38
2022/01/07 09:53:23;;;;;;;7.40;4.60;;;;;;;7.41;55.42;97038.34;5094186;28;20488;-38
2022/01/07 09:55:50;;;;;;;15.00;8.20;;;;;;;7.50;55.87;97045.00;5093775;28;20504;-36
2022/01/07 09:58:19;;;;;;;14.97;8.07;;;;;;;7.55;54.35;97037.25;5093675;28;20561;-38
2022/01/07 10:00:47;;;;;;;17.93;7.43;;;;;;;7.59;53.83;97043.75;5101511;28;20450;-35
2022/01/07 10:03:16;;;;;;;14.13;7.10;;;;;;;7.58;54.68;97048.22;5114381;28;20822;-38
2022/01/07 10:05:45;;;;;;;11.23;5.33;;;;;;;7.64;53.72;97041.31;5114031;28;20442;-38
2022/01/07 10:08:25;;;;;;;36.63;17.10;;;;;;;7.67;53.86;97045.34;5113934;28;20446;-39
2022/01/07 10:11:14;;;;;;;6.13;4.10;;;;;;;7.61;50.95;97046.19;5114171;28;20834;-38
2022/01/07 10:13:44;;;;;;;9.13;4.77;;;;;;;7.48;52.66;97047.06;5113883;28;20824;-38
2022/01/07 10:16:17;;;;;;;5.93;3.13;;;;;;;7.34;53.17;97030.47;5114396;28;20434;-39
2022/01/07 10:18:44;;;;;;;5.90;3.33;;;;;;;7.32;51.38;97054.44;5113844;28;20434;-38
2022/01/07 10:21:12;;;;;;;8.67;5.03;;;;;;;7.23;53.48;97046.94;5114076;28;20477;-38
2022/01/07 10:23:40;;;;;;;3.70;3.23;;;;;;;7.17;51.09;97038.03;5113697;28;20934;-38
2022/01/07 10:26:14;;;;;;;6.60;4.00;;;;;;;7.10;52.78;97031.97;5114019;28;20830;-37
2022/01/07 10:28:43;;;;;;;4.43;3.03;;;;;;;7.17;53.57;97041.47;5113705;28;20453;-38
2022/01/07 10:31:11;;;;;;;4.40;2.67;;;;;;;7.23;53.63;97044.31;5114076;28;20496;-38
2022/01/07 10:33:40;;;;;;;7.80;4.90;;;;;;;7.23;53.06;97046.94;5113875;28;20442;-38
2022/01/07 10:36:21;;;;;;;51.53;20.30;;;;;;;7.26;53.88;97034.13;5113625;28;20615;-39
2022/01/07 10:38:50;;;;;;;47.03;17.50;;;;;;;7.35;54.13;97038.16;5113971;28;20916;-38
2022/01/07 10:41:19;;;;;;;7.70;4.60;;;;;;;7.43;52.62;97033.69;5113884;28;20450;-38
2022/01/07 10:43:48;;;;;;;7.17;4.27;;;;;;;7.42;52.33;97032.88;5113724;28;20492;-37
2022/01/07 10:46:20;;;;;;;4.73;4.07;;;;;;;7.48;53.12;97034.66;5113863;28;20475;-38
2022/01/07 10:48:53;;;;;;;4.47;4.07;;;;;;;7.45;52.92;97023.72;5113822;28;20518;-38
2022/01/07 10:51:22;;;;;;;2.47;2.03;;;;;;;7.55;53.13;97031.97;5113824;28;20810;-38
2022/01/07 10:53:52;;;;;;;6.03;3.80;;;;;;;7.59;52.61;97041.09;5098359;28;20946;-38
2022/01/07 10:56:21;;;;;;;5.53;5.00;;;;;;;7.66;52.74;97027.84;5096197;28;20960;-37
2022/01/07 10:58:58;;;;;;;2.27;2.00;;;;;;;7.74;52.67;97025.81;5096912;28;20467;-38
2022/01/07 11:01:32;;;;;;;27.27;14.57;;;;;;;7.75;50.60;97026.59;5097432;28;20427;-37
2022/01/07 11:04:00;;;;;;;8.60;4.57;;;;;;;7.66;50.20;97023.41;5097171;28;20482;-37
2022/01/07 11:06:29;;;;;;;5.27;3.53;;;;;;;7.66;50.28;97033.97;5097315;28;20626;-38
2022/01/07 11:08:58;;;;;;;5.90;4.50;;;;;;;7.53;50.76;96997.06;5096898;28;20446;-38
2022/01/07 11:11:28;;;;;;;7.30;4.80;;;;;;;7.75;50.99;97013.38;5097204;28;20451;-37
2022/01/07 11:14:01;;;;;;;14.90;9.67;;;;;;;7.81;50.86;97020.47;5097143;28;20835;-37
2022/01/07 11:16:28;;;;;;;14.03;8.10;;;;;;;7.78;50.13;97021.69;5096866;28;20470;-38
2022/01/07 11:18:58;;;;;;;7.40;4.40;;;;;;;7.71;49.02;97020.91;5096766;28;20478;-38
2022/01/07 11:21:25;;;;;;;7.20;5.80;;;;;;;7.66;50.04;97012.81;5096732;28;20981;-38
2022/01/07 11:23:52;;;;;;;17.60;9.03;;;;;;;7.70;50.74;97013.19;5096599;28;20491;-38
2022/01/07 11:26:20;;;;;;;15.60;7.07;;;;;;;7.77;52.12;97003.41;5096920;28;20443;-38
2022/01/07 11:28:59;;;;;;;18.57;10.33;;;;;;;7.84;51.97;97008.66;5097729;28;20914;-38
2022/01/07 11:31:28;;;;;;;18.37;10.60;;;;;;;7.88;51.69;97009.84;5096494;28;20484;-37
2022/01/07 11:34:26;;;;;;;14.90;6.23;;;;;;;7.87;51.05;97008.22;5096947;28;20439;-35
2022/01/07 11:36:54;;;;;;;3.90;2.83;;;;;;;7.85;50.14;97012.91;5096660;28;20831;-35
2022/01/07 11:39:23;;;;;;;4.03;2.90;;;;;;;7.70;49.48;97008.75;5096306;28;20442;-35
2022/01/07 11:41:55;;;;;;;11.70;6.77;;;;;;;7.56;49.53;97001.91;5096317;28;20496;-38
2022/01/07 11:44:27;;;;;;;14.90;9.20;;;;;;;7.60;49.86;97013.66;5096335;28;20481;-38
2022/01/07 11:47:24;;;;;;;25.13;15.53;;;;;;;7.60;50.48;97008.38;5096270;28;20435;-38
2022/01/07 11:50:02;;;;;;;23.60;15.43;;;;;;;7.59;50.71;97001.47;5096401;28;20453;-37
2022/01/07 11:52:34;;;;;;;8.20;5.27;;;;;;;7.55;51.22;97001.09;5096380;28;20777;-38